Time;durP1;ratioP1;P1;durP2;ratioP2;P2;SDS_P1;SDS_P2;PMS_P1;PMS_P2;Temp;Humidity;BMP_temperature;BMP_pressure;BME280_temperature;BME280_humidity;BME280_pressure;Samples;Min_cycle;Max_cycle;Signal;HPM_P1;HPM_P2
2023/10/21 00:00:51;;;;;;;14.35;5.97;;;;;;;17.61;48.43;94203.50;4208674;28;20079;-71
2023/10/21 00:02:53;;;;;;;12.75;6.07;;;;;;;17.60;48.50;94178.84;4208093;28;20550;-72
2023/10/21 00:04:55;;;;;;;14.93;6.68;;;;;;;17.69;48.35;94210.38;4193798;28;20572;-72
2023/10/21 00:06:57;;;;;;;19.77;6.35;;;;;;;17.76;48.16;94190.75;4202192;28;20225;-72
2023/10/21 00:08:59;;;;;;;14.00;6.38;;;;;;;17.82;48.02;94194.41;4213337;28;20040;-72
2023/10/21 00:11:06;;;;;;;12.75;6.55;;;;;;;17.88;47.91;94214.75;4209829;28;20048;-70
2023/10/21 00:13:08;;;;;;;13.02;6.35;;;;;;;17.73;48.22;94193.84;4211024;28;20126;-71
2023/10/21 00:15:10;;;;;;;14.77;6.85;;;;;;;17.50;48.81;94177.72;4209399;28;20048;-69
2023/10/21 00:17:14;;;;;;;17.20;6.85;;;;;;;17.27;49.50;94215.31;4189771;28;20044;-69
2023/10/21 00:19:16;;;;;;;15.57;6.25;;;;;;;17.37;49.31;94223.63;4195403;28;20450;-70
2023/10/21 00:21:18;;;;;;;14.65;6.20;;;;;;;17.32;49.44;94189.03;4195808;28;20056;-71
2023/10/21 00:23:23;;;;;;;12.50;5.55;;;;;;;17.33;49.41;94217.13;4195536;28;20052;-68
2023/10/21 00:25:25;;;;;;;15.48;6.18;;;;;;;17.31;49.37;94203.28;4204053;28;20070;-68
2023/10/21 00:27:28;;;;;;;16.40;6.57;;;;;;;17.40;49.26;94202.00;4211712;28;20102;-72
2023/10/21 00:29:30;;;;;;;17.30;6.57;;;;;;;17.49;49.25;94216.63;4196948;28;20511;-70
2023/10/21 00:31:31;;;;;;;17.15;6.78;;;;;;;17.58;49.05;94225.13;4204488;28;20083;-72
2023/10/21 00:33:33;;;;;;;14.65;5.90;;;;;;;17.60;48.94;94223.88;4198191;28;20444;-70
2023/10/21 00:35:35;;;;;;;13.13;6.28;;;;;;;17.56;48.82;94229.81;4194248;28;20052;-71
2023/10/21 00:37:37;;;;;;;16.50;6.68;;;;;;;17.58;48.97;94219.81;4178637;28;20045;-70
2023/10/21 00:39:39;;;;;;;11.20;5.85;;;;;;;17.47;49.58;94223.97;4212929;28;20046;-72
2023/10/21 00:41:42;;;;;;;12.38;6.32;;;;;;;17.20;50.02;94220.66;4208956;28;20401;-71
2023/10/21 00:43:44;;;;;;;13.80;6.65;;;;;;;17.27;49.67;94265.63;4210598;28;20039;-71
2023/10/21 00:45:46;;;;;;;13.38;5.75;;;;;;;17.31;49.80;94235.06;4207702;28;20045;-71
2023/10/21 00:47:48;;;;;;;13.55;6.00;;;;;;;17.03;50.57;94227.44;4207033;28;20148;-70
2023/10/21 00:49:51;;;;;;;12.35;5.95;;;;;;;16.84;51.00;94203.50;4213167;28;20420;-72
2023/10/21 00:51:56;;;;;;;14.38;5.53;;;;;;;16.94;50.58;94240.91;4193317;28;20140;-72
2023/10/21 00:53:58;;;;;;;13.75;5.93;;;;;;;16.96;50.77;94211.59;4192678;28;20049;-68
2023/10/21 00:56:02;;;;;;;14.27;6.18;;;;;;;17.08;50.54;94249.63;4195112;28;20089;-70
2023/10/21 00:58:04;;;;;;;14.45;6.10;;;;;;;17.22;50.28;94246.91;4162527;28;20057;-71
2023/10/21 01:00:11;;;;;;;12.85;5.57;;;;;;;17.32;49.70;94258.66;4202265;28;20052;-71
2023/10/21 01:02:13;;;;;;;14.52;5.97;;;;;;;17.20;50.00;94232.03;4203391;28;20048;-68
2023/10/21 01:04:16;;;;;;;17.50;5.93;;;;;;;17.20;50.26;94263.00;4212720;28;20433;-70
2023/10/21 01:06:18;;;;;;;14.25;5.60;;;;;;;17.14;50.39;94230.25;4209109;28;20493;-71
2023/10/21 01:08:20;;;;;;;23.48;5.85;;;;;;;17.18;50.22;94257.09;4186948;28;20068;-71
2023/10/21 01:10:22;;;;;;;13.30;4.95;;;;;;;17.14;50.45;94246.16;4204712;28;20467;-73
2023/10/21 01:12:24;;;;;;;11.60;5.85;;;;;;;17.05;50.61;94244.72;4210364;28;20054;-72
2023/10/21 01:14:28;;;;;;;16.77;5.82;;;;;;;17.15;50.49;94242.47;4194749;28;20055;-72
2023/10/21 01:16:30;;;;;;;16.67;5.35;;;;;;;17.23;50.33;94259.09;4212177;28;20060;-72
2023/10/21 01:18:34;;;;;;;13.60;5.75;;;;;;;17.26;50.28;94258.72;4212668;28;20134;-72
2023/10/21 01:20:41;;;;;;;19.13;6.05;;;;;;;17.26;50.18;94227.75;4183647;28;20110;-70
2023/10/21 01:22:43;;;;;;;11.07;5.43;;;;;;;17.31;49.92;94259.69;4201713;28;20044;-71
2023/10/21 01:24:45;;;;;;;16.70;6.03;;;;;;;17.07;50.46;94204.84;4189237;28;20459;-71
2023/10/21 01:26:47;;;;;;;12.65;5.30;;;;;;;17.06;50.59;94275.47;4194091;28;20465;-71
2023/10/21 01:28:49;;;;;;;12.65;5.80;;;;;;;16.96;50.66;94246.81;4206596;28;20063;-70
2023/10/21 01:30:51;;;;;;;17.75;5.78;;;;;;;16.93;50.73;94186.38;4194840;28;20127;-71
2023/10/21 01:32:53;;;;;;;9.38;4.93;;;;;;;16.96;50.77;94262.69;4194157;28;20052;-72
2023/10/21 01:34:55;;;;;;;13.48;5.07;;;;;;;16.97;50.70;94234.38;4209300;28;20508;-72
2023/10/21 01:36:59;;;;;;;16.48;5.18;;;;;;;16.89;50.76;94224.06;4194323;28;20531;-71
2023/10/21 01:39:01;;;;;;;12.25;4.80;;;;;;;16.89;50.84;94253.16;4191669;28;20048;-71
2023/10/21 01:41:03;;;;;;;11.32;5.28;;;;;;;17.00;50.79;94255.16;4203258;28;20049;-69
2023/10/21 01:43:05;;;;;;;14.15;5.45;;;;;;;16.88;50.97;94235.66;4198519;28;20049;-69
2023/10/21 01:45:09;;;;;;;9.48;4.75;;;;;;;16.62;51.83;94184.44;4193839;28;20056;-71
2023/10/21 01:47:11;;;;;;;11.13;4.68;;;;;;;16.70;51.50;94250.31;4203024;28;20063;-71
2023/10/21 01:49:16;;;;;;;13.20;4.93;;;;;;;16.81;51.06;94240.97;4194881;28;20586;-72
2023/10/21 01:51:19;;;;;;;17.98;4.88;;;;;;;16.86;50.75;94219.16;4193796;28;20062;-71
2023/10/21 01:53:21;;;;;;;13.13;4.43;;;;;;;17.01;50.27;94214.41;4194406;28;20045;-73
2023/10/21 01:55:24;;;;;;;13.75;5.35;;;;;;;17.09;50.27;94222.13;4194718;28;20436;-71
2023/10/21 01:57:26;;;;;;;9.18;4.93;;;;;;;17.16;50.31;94241.44;4212761;28;20052;-70
2023/10/21 01:59:28;;;;;;;14.73;4.47;;;;;;;17.19;49.94;94248.97;4208575;28;20143;-70
2023/10/21 02:01:30;;;;;;;16.65;4.85;;;;;;;17.26;49.77;94250.75;4212679;28;20048;-71
2023/10/21 02:03:32;;;;;;;10.55;5.05;;;;;;;16.94;50.70;94200.41;4212573;28;20097;-71
2023/10/21 02:05:36;;;;;;;10.27;4.75;;;;;;;16.96;50.64;94254.75;4196336;28;20124;-71
2023/10/21 02:07:39;;;;;;;13.60;4.85;;;;;;;17.02;50.48;94268.97;4201031;28;20493;-71
2023/10/21 02:09:41;;;;;;;9.50;4.27;;;;;;;16.93;50.51;94246.44;4186771;28;20087;-70
2023/10/21 02:11:42;;;;;;;11.93;5.07;;;;;;;16.99;50.47;94256.16;4213240;28;20051;-71
2023/10/21 02:13:44;;;;;;;13.52;4.97;;;;;;;16.87;50.65;94218.16;4198680;28;20056;-70
2023/10/21 02:15:47;;;;;;;14.07;5.00;;;;;;;16.88;50.46;94254.97;4183845;28;20406;-71
2023/10/21 02:17:49;;;;;;;15.15;4.80;;;;;;;16.92;50.52;94250.88;4208607;28;20131;-70
2023/10/21 02:19:57;;;;;;;19.10;5.07;;;;;;;16.75;50.94;94226.69;4203696;28;20154;-68
2023/10/21 02:21:59;;;;;;;14.05;4.82;;;;;;;16.83;50.73;94268.03;4193406;28;20060;-70
2023/10/21 02:24:01;;;;;;;11.02;5.32;;;;;;;16.63;51.43;94207.22;4210890;28;20139;-73
2023/10/21 02:26:04;;;;;;;14.90;5.05;;;;;;;16.57;51.62;94268.88;4215058;28;20048;-70
2023/10/21 02:28:06;;;;;;;16.50;4.88;;;;;;;16.49;51.58;94229.41;4196642;28;20583;-72
2023/10/21 02:30:10;;;;;;;22.88;6.07;;;;;;;16.56;51.68;94267.22;4214418;28;20075;-72
2023/10/21 02:32:12;;;;;;;;;;;;;;;16.68;51.28;94270.88;4180837;28;20167;-71
2023/10/21 02:34:14;;;;;;;11.52;4.90;;;;;;;16.67;51.25;94241.97;4203542;28;19921;-70
2023/10/21 02:36:16;;;;;;;12.57;4.72;;;;;;;16.70;51.32;94275.97;4193366;28;20123;-70
2023/10/21 02:38:18;;;;;;;9.45;5.25;;;;;;;16.53;51.79;94251.78;4209756;28;20052;-70
2023/10/21 02:40:20;;;;;;;14.95;4.85;;;;;;;16.58;51.80;94283.69;4214709;28;20062;-72
2023/10/21 02:42:22;;;;;;;14.35;5.15;;;;;;;16.32;52.41;94274.78;4209642;28;20068;-72
2023/10/21 02:44:25;;;;;;;11.63;4.82;;;;;;;16.42;52.38;94281.50;4174212;28;20091;-72
2023/10/21 02:46:30;;;;;;;10.63;4.70;;;;;;;16.50;52.13;94262.78;4213689;28;20056;-68
2023/10/21 02:48:31;;;;;;;16.52;5.10;;;;;;;16.28;52.62;94262.19;4197011;28;20048;-71
2023/10/21 02:50:34;;;;;;;13.32;5.40;;;;;;;16.29;53.00;94243.50;4197484;28;20048;-71
2023/10/21 02:52:38;;;;;;;18.55;5.25;;;;;;;16.40;52.61;94281.69;4197216;28;20073;-69
2023/10/21 02:54:40;;;;;;;14.93;5.43;;;;;;;16.49;52.37;94258.50;4184365;28;20508;-71
2023/10/21 02:56:43;;;;;;;15.95;4.85;;;;;;;16.20;53.13;94257.09;4214919;28;20052;-73
2023/10/21 02:58:45;;;;;;;16.30;5.28;;;;;;;16.26;53.17;94303.88;4213768;28;20084;-72
2023/10/21 03:00:48;;;;;;;13.63;5.00;;;;;;;16.37;52.70;94288.22;4214233;28;20126;-70
2023/10/21 03:02:49;;;;;;;13.07;4.95;;;;;;;16.17;53.28;94264.44;4200641;28;20134;-69
2023/10/21 03:04:52;;;;;;;13.13;5.45;;;;;;;15.86;54.39;94295.94;4214031;28;20047;-71
2023/10/21 03:06:54;;;;;;;15.05;5.50;;;;;;;15.76;54.82;94283.91;4213926;28;20136;-72
2023/10/21 03:08:57;;;;;;;14.10;5.32;;;;;;;15.95;54.51;94294.72;4211620;28;20090;-73
2023/10/21 03:11:02;;;;;;;11.00;4.63;;;;;;;16.10;54.11;94291.88;4199801;28;20072;-71
2023/10/21 03:13:04;;;;;;;10.13;5.00;;;;;;;15.93;54.36;94257.94;4202263;28;20357;-72
2023/10/21 03:15:06;;;;;;;12.15;5.03;;;;;;;15.97;54.42;94298.78;4205512;28;20055;-72
2023/10/21 03:17:08;;;;;;;14.98;5.70;;;;;;;15.97;54.49;94277.63;4183929;28;20489;-69
2023/10/21 03:19:10;;;;;;;11.70;4.70;;;;;;;16.05;54.36;94279.28;4201697;28;20579;-70
2023/10/21 03:21:12;;;;;;;13.95;5.22;;;;;;;16.08;54.08;94305.28;4211546;28;20048;-69
2023/10/21 03:23:14;;;;;;;15.45;5.07;;;;;;;16.21;53.69;94296.56;4180073;28;20107;-71
2023/10/21 03:25:17;;;;;;;14.30;4.80;;;;;;;16.17;53.92;94284.75;4213450;28;20044;-70
2023/10/21 03:27:20;;;;;;;12.15;5.47;;;;;;;15.99;54.60;94274.81;4212553;28;20547;-69
2023/10/21 03:29:22;;;;;;;14.38;5.13;;;;;;;15.90;54.62;94268.91;4193809;28;20052;-71
2023/10/21 03:31:24;;;;;;;13.73;5.30;;;;;;;15.94;54.57;94312.41;4209818;28;20127;-72
2023/10/21 03:33:27;;;;;;;12.88;5.10;;;;;;;16.03;54.20;94278.66;4196345;28;20113;-70
2023/10/21 03:35:31;;;;;;;11.93;5.15;;;;;;;15.97;54.40;94258.34;4213014;28;20051;-70
2023/10/21 03:37:34;;;;;;;;;;;;;;;15.80;54.82;94308.09;4214594;28;20054;-70
2023/10/21 03:39:35;;;;;;;10.68;4.50;;;;;;;15.86;53.76;94243.91;4205831;28;19920;-71
2023/10/21 03:41:37;;;;;;;17.52;5.60;;;;;;;16.15;53.23;94307.94;4200777;28;20127;-70
2023/10/21 03:43:39;;;;;;;14.00;4.90;;;;;;;16.24;52.71;94287.41;4212251;28;20924;-71
2023/10/21 03:45:43;;;;;;;14.85;4.93;;;;;;;16.19;52.79;94253.66;4179556;28;20041;-71
2023/10/21 03:47:45;;;;;;;13.75;4.78;;;;;;;16.21;52.85;94312.41;4212223;28;20401;-71
2023/10/21 03:49:48;;;;;;;19.77;4.90;;;;;;;16.17;52.74;94253.88;4203772;28;20349;-70
2023/10/21 03:51:50;;;;;;;12.32;4.50;;;;;;;16.28;52.00;94273.59;4211782;28;20131;-72
2023/10/21 03:53:52;;;;;;;15.93;5.00;;;;;;;16.37;52.35;94282.94;4213491;28;20047;-71
2023/10/21 03:55:55;;;;;;;16.42;5.05;;;;;;;16.48;52.05;94273.56;4212781;28;20075;-70
2023/10/21 03:58:01;;;;;;;14.25;5.03;;;;;;;16.50;52.22;94271.53;4213472;28;20473;-70
2023/10/21 04:00:05;;;;;;;13.95;5.22;;;;;;;16.40;52.46;94287.00;4211488;28;20056;-71
2023/10/21 04:02:07;;;;;;;14.07;4.97;;;;;;;16.35;52.72;94282.31;4195961;28;20527;-72
2023/10/21 04:04:09;;;;;;;11.43;4.63;;;;;;;16.15;53.11;94261.19;4179454;28;20045;-71
2023/10/21 04:06:13;;;;;;;10.40;4.75;;;;;;;16.14;53.37;94293.91;4195148;28;20045;-71
2023/10/21 04:08:16;;;;;;;16.13;5.47;;;;;;;16.18;53.16;94281.13;4181579;28;20147;-71
2023/10/21 04:10:17;;;;;;;9.18;5.10;;;;;;;16.00;53.60;94255.28;4193054;28;20106;-71
2023/10/21 04:12:20;;;;;;;14.05;4.75;;;;;;;16.08;53.13;94289.44;4179035;28;20049;-72
2023/10/21 04:14:24;;;;;;;13.15;5.00;;;;;;;16.15;52.91;94270.94;4194509;28;20037;-71
2023/10/21 04:16:26;;;;;;;8.93;4.50;;;;;;;15.84;53.66;94251.22;4211949;28;20066;-72
2023/10/21 04:18:28;;;;;;;8.80;4.10;;;;;;;15.96;53.15;94262.81;4209536;28;20047;-72
2023/10/21 04:20:33;;;;;;;10.50;4.18;;;;;;;16.08;53.12;94268.28;4211525;28;20054;-72
2023/10/21 04:22:35;;;;;;;12.02;4.75;;;;;;;16.25;52.64;94281.09;4196078;28;20110;-72
2023/10/21 04:24:37;;;;;;;10.80;4.25;;;;;;;16.35;52.38;94284.97;4207563;28;20040;-71
2023/10/21 04:26:39;;;;;;;10.73;4.45;;;;;;;16.48;51.98;94291.25;4213678;28;20055;-72
2023/10/21 04:28:41;;;;;;;10.30;4.20;;;;;;;16.49;52.05;94296.31;4212007;28;20130;-71
2023/10/21 04:30:45;;;;;;;11.32;4.40;;;;;;;16.52;51.88;94300.38;4194407;28;20060;-72
2023/10/21 04:32:47;;;;;;;10.40;4.88;;;;;;;16.05;53.07;94249.41;4179081;28;20091;-71
2023/10/21 04:34:49;;;;;;;16.40;5.25;;;;;;;15.89;53.72;94306.88;4213770;28;20040;-73
2023/10/21 04:36:51;;;;;;;8.95;4.50;;;;;;;16.02;53.40;94302.63;4186673;28;20513;-72
2023/10/21 04:38:53;;;;;;;13.82;5.10;;;;;;;15.90;53.28;94258.34;4191121;28;20048;-73
2023/10/21 04:40:55;;;;;;;16.23;4.93;;;;;;;16.15;52.73;94306.13;4195884;28;20086;-71
2023/10/21 04:42:57;;;;;;;12.63;4.57;;;;;;;16.29;51.39;94269.13;4195091;28;20080;-72
2023/10/21 04:44:58;;;;;;;11.27;4.22;;;;;;;16.50;51.00;94294.53;4211584;28;20051;-72
2023/10/21 04:47:01;;;;;;;18.15;4.90;;;;;;;16.65;50.92;94295.09;4212076;28;20508;-75
2023/10/21 04:49:04;;;;;;;19.33;4.80;;;;;;;16.71;50.86;94323.38;4188527;28;20048;-72
2023/10/21 04:51:06;;;;;;;9.17;5.00;;;;;;;16.64;51.14;94290.00;4212924;28;20054;-73
2023/10/21 04:53:09;;;;;;;9.13;4.85;;;;;;;16.51;51.69;94317.28;4210150;28;20706;-71
2023/10/21 04:55:10;;;;;;;15.20;5.43;;;;;;;16.53;51.57;94312.59;4212797;28;20040;-71
2023/10/21 04:57:14;;;;;;;14.77;5.15;;;;;;;16.20;52.43;94296.75;4209635;28;20060;-73
2023/10/21 04:59:15;;;;;;;11.48;4.35;;;;;;;16.27;51.91;94306.31;4189359;28;20147;-73
2023/10/21 05:01:18;;;;;;;14.63;5.20;;;;;;;16.39;51.79;94327.69;4210451;28;20043;-72
2023/10/21 05:03:20;;;;;;;13.52;4.93;;;;;;;16.53;51.58;94333.75;4206500;28;20044;-72
2023/10/21 05:05:22;;;;;;;17.50;5.28;;;;;;;16.59;51.54;94351.44;4213079;28;20047;-72
2023/10/21 05:07:26;;;;;;;16.98;5.22;;;;;;;16.29;52.74;94343.13;4188394;28;20045;-74
2023/10/21 05:09:28;;;;;;;15.52;6.03;;;;;;;16.24;53.14;94351.66;4203224;28;20053;-72
2023/10/21 05:11:30;;;;;;;14.15;5.25;;;;;;;16.16;53.49;94357.94;4210491;28;20055;-73
2023/10/21 05:13:33;;;;;;;10.63;5.57;;;;;;;16.22;53.46;94352.84;4189438;28;20044;-74
2023/10/21 05:15:36;;;;;;;16.48;6.13;;;;;;;16.07;53.91;94361.81;4213107;28;20463;-73
2023/10/21 05:17:39;;;;;;;19.05;6.28;;;;;;;16.14;53.92;94377.66;4213184;28;20109;-72
2023/10/21 05:19:41;;;;;;;12.32;5.60;;;;;;;16.24;53.72;94367.53;4211735;28;20052;-72
2023/10/21 05:21:43;;;;;;;15.63;6.55;;;;;;;16.34;53.76;94383.78;4208038;28;20421;-72
2023/10/21 05:23:46;;;;;;;12.57;6.00;;;;;;;16.14;53.95;94348.59;4190540;28;20066;-70
2023/10/21 05:25:48;;;;;;;13.73;5.97;;;;;;;15.91;55.01;94380.66;4195319;28;20072;-72
2023/10/21 05:27:50;;;;;;;13.90;5.53;;;;;;;16.06;54.64;94377.84;4212828;28;20484;-71
2023/10/21 05:29:51;;;;;;;14.68;6.28;;;;;;;15.97;54.85;94356.91;4193638;28;20471;-71
2023/10/21 05:31:54;;;;;;;19.70;5.78;;;;;;;16.14;54.34;94372.38;4213100;28;20097;-72
2023/10/21 05:33:57;;;;;;;13.00;6.00;;;;;;;16.26;54.10;94391.91;4212997;28;20048;-73
2023/10/21 05:36:01;;;;;;;17.88;6.15;;;;;;;16.38;53.63;94366.50;4202010;28;20385;-72
2023/10/21 05:38:03;;;;;;;;;;;;;;;16.54;53.24;94388.25;4206980;28;20056;-73
2023/10/21 05:40:06;;;;;;;15.82;6.47;;;;;;;16.66;52.94;94391.13;4211618;28;19919;-73
2023/10/21 05:42:09;;;;;;;16.90;6.13;;;;;;;16.37;53.65;94367.53;4213006;28;20465;-72
2023/10/21 05:44:12;;;;;;;15.50;6.05;;;;;;;16.24;53.68;94374.63;4193782;28;20059;-72
2023/10/21 05:46:14;;;;;;;14.00;6.03;;;;;;;16.22;53.99;94390.69;4205673;28;20412;-72
2023/10/21 05:48:16;;;;;;;13.52;5.90;;;;;;;16.36;53.75;94389.66;4194767;28;20501;-72
2023/10/21 05:50:23;;;;;;;19.63;6.20;;;;;;;16.33;53.62;94399.84;4195181;28;20109;-72
2023/10/21 05:52:25;;;;;;;16.40;6.10;;;;;;;16.54;53.30;94404.13;4208004;28;20136;-72
2023/10/21 05:54:30;;;;;;;14.98;5.55;;;;;;;16.76;52.77;94394.16;4212072;28;20086;-73
2023/10/21 05:56:32;;;;;;;15.85;5.50;;;;;;;16.99;52.10;94401.69;4206665;28;20048;-72
2023/10/21 05:58:35;;;;;;;17.20;5.93;;;;;;;17.20;51.53;94411.22;4211395;28;20101;-73
2023/10/21 06:00:37;;;;;;;17.73;6.88;;;;;;;17.35;51.44;94395.09;4215678;28;20127;-73
2023/10/21 06:02:41;;;;;;;13.60;6.18;;;;;;;17.51;51.03;94401.75;4195954;28;20057;-73
2023/10/21 06:04:43;;;;;;;14.43;6.32;;;;;;;17.64;50.49;94415.00;4210506;28;20040;-72
2023/10/21 06:06:46;;;;;;;15.77;5.50;;;;;;;17.71;50.59;94399.06;4210929;28;20101;-73
2023/10/21 06:08:48;;;;;;;18.98;6.30;;;;;;;17.67;50.31;94397.84;4165347;28;20319;-73
2023/10/21 06:10:51;;;;;;;12.82;5.05;;;;;;;17.69;50.15;94407.22;4199296;28;20078;-73
2023/10/21 06:12:53;;;;;;;20.92;5.68;;;;;;;17.80;50.07;94405.75;4214417;28;20044;-72
2023/10/21 06:14:55;;;;;;;14.65;4.95;;;;;;;17.85;50.15;94415.72;4204860;28;20050;-72
2023/10/21 06:16:58;;;;;;;17.60;5.70;;;;;;;17.84;49.72;94406.97;4215567;28;20044;-72
2023/10/21 06:19:02;;;;;;;9.68;4.68;;;;;;;18.03;49.61;94407.09;4214805;28;20044;-71
2023/10/21 06:21:04;;;;;;;10.55;5.05;;;;;;;18.20;49.37;94416.19;4197750;28;20102;-71
2023/10/21 06:23:06;;;;;;;14.18;5.60;;;;;;;18.33;48.95;94402.03;4199009;28;20070;-71
2023/10/21 06:25:10;;;;;;;13.00;4.72;;;;;;;18.28;49.24;94412.44;4212534;28;20041;-72
2023/10/21 06:27:12;;;;;;;10.40;5.03;;;;;;;18.41;49.10;94431.75;4214393;28;20060;-72
2023/10/21 06:29:14;;;;;;;14.68;5.00;;;;;;;18.42;48.79;94411.34;4212445;28;20052;-74
2023/10/21 06:31:17;;;;;;;19.45;5.00;;;;;;;18.39;49.07;94420.56;4215584;28;20476;-75
2023/10/21 06:33:18;;;;;;;18.52;5.53;;;;;;;18.14;49.47;94398.47;4215409;28;20059;-73
2023/10/21 06:35:21;;;;;;;13.32;5.10;;;;;;;18.17;49.62;94404.13;4215067;28;20047;-75
2023/10/21 06:37:23;;;;;;;14.38;5.20;;;;;;;18.38;49.28;94428.72;4215263;28;20048;-74
2023/10/21 06:39:28;;;;;;;9.60;3.75;;;;;;;18.35;49.39;94410.59;4191476;28;20051;-74
2023/10/21 06:41:30;;;;;;;21.13;5.07;;;;;;;18.37;49.63;94441.16;4199411;28;20428;-75
2023/10/21 06:43:33;;;;;;;12.32;5.35;;;;;;;18.45;49.63;94416.22;4195959;28;20484;-73
2023/10/21 06:45:37;;;;;;;11.10;4.30;;;;;;;18.25;50.34;94415.53;4213794;28;20043;-73
2023/10/21 06:47:41;;;;;;;15.68;4.72;;;;;;;18.47;49.83;94416.81;4215626;28;20048;-72
2023/10/21 06:49:45;;;;;;;14.32;4.72;;;;;;;18.70;49.32;94440.13;4214512;28;20431;-72
2023/10/21 06:51:52;;;;;;;12.70;4.15;;;;;;;18.94;48.74;94424.44;4180880;28;20055;-74
2023/10/21 06:53:55;;;;;;;16.13;5.32;;;;;;;18.92;48.62;94416.69;4197267;28;20052;-74
2023/10/21 06:55:58;;;;;;;17.25;4.93;;;;;;;18.89;48.67;94416.34;4197393;28;20094;-74
2023/10/21 06:58:05;;;;;;;7.93;3.67;;;;;;;18.98;48.13;94415.03;4212413;28;20455;-71
2023/10/21 07:00:08;;;;;;;15.93;5.03;;;;;;;19.14;48.00;94434.88;4186927;28;20515;-73
2023/10/21 07:02:10;;;;;;;18.65;4.25;;;;;;;19.29;47.94;94421.25;4215205;28;20044;-72
2023/10/21 07:04:14;;;;;;;17.27;4.10;;;;;;;19.12;47.17;94407.75;4197274;28;20057;-73
2023/10/21 07:06:20;;;;;;;13.40;4.57;;;;;;;19.18;47.44;94405.00;4212088;28;20044;-74
2023/10/21 07:08:23;;;;;;;13.55;4.45;;;;;;;19.35;47.43;94426.50;4197747;28;20532;-73
2023/10/21 07:10:27;;;;;;;11.10;4.43;;;;;;;19.54;46.94;94403.41;4212295;28;20048;-71
2023/10/21 07:12:29;;;;;;;16.83;4.43;;;;;;;19.19;46.38;94397.88;4210248;28;20067;-74
2023/10/21 07:14:33;;;;;;;10.98;4.47;;;;;;;19.36;46.62;94416.69;4212786;28;20048;-73
2023/10/21 07:16:36;;;;;;;11.63;4.30;;;;;;;19.58;46.76;94430.38;4214812;28;20044;-73
2023/10/21 07:18:39;;;;;;;18.77;5.40;;;;;;;19.63;46.21;94403.94;4213122;28;20048;-70
2023/10/21 07:20:42;;;;;;;16.25;4.28;;;;;;;19.51;45.98;94397.72;4214897;28;20047;-72
2023/10/21 07:22:44;;;;;;;12.57;4.40;;;;;;;19.64;45.91;94416.22;4208742;28;20040;-72
2023/10/21 07:24:46;;;;;;;14.27;4.32;;;;;;;19.81;45.37;94413.75;4214785;28;20411;-72
2023/10/21 07:26:47;;;;;;;9.90;4.05;;;;;;;19.63;45.66;94402.09;4213882;28;20052;-74
2023/10/21 07:28:51;;;;;;;14.10;4.38;;;;;;;19.74;45.58;94418.34;4195464;28;20048;-72
2023/10/21 07:30:54;;;;;;;12.98;4.45;;;;;;;19.89;44.92;94400.16;4213891;28;20102;-73
2023/10/21 07:32:56;;;;;;;13.27;5.00;;;;;;;20.09;44.71;94401.75;4209589;28;20048;-73
2023/10/21 07:34:58;;;;;;;14.88;5.00;;;;;;;20.26;44.62;94405.41;4213798;28;20565;-74
2023/10/21 07:37:00;;;;;;;16.45;4.20;;;;;;;20.24;44.38;94386.19;4215042;28;20048;-73
2023/10/21 07:39:04;;;;;;;16.23;6.32;;;;;;;19.95;44.89;94409.13;4214148;28;20136;-75
2023/10/21 07:41:11;;;;;;;14.38;5.28;;;;;;;20.11;44.78;94415.66;4196171;28;20503;-73
2023/10/21 07:43:18;;;;;;;12.63;5.00;;;;;;;20.09;44.32;94412.41;4212477;28;20067;-74
2023/10/21 07:45:21;;;;;;;13.75;5.30;;;;;;;19.81;45.00;94409.28;4211432;28;20055;-72
2023/10/21 07:47:23;;;;;;;11.15;5.78;;;;;;;19.83;45.06;94409.03;4214763;28;20131;-76
2023/10/21 07:49:25;;;;;;;20.58;5.55;;;;;;;19.92;45.13;94412.19;4212875;28;20071;-74
2023/10/21 07:51:30;;;;;;;19.67;6.05;;;;;;;20.16;44.57;94423.78;4202738;28;20052;-73
2023/10/21 07:53:34;;;;;;;17.25;5.80;;;;;;;20.01;44.75;94413.53;4210595;28;20097;-72
2023/10/21 07:55:36;;;;;;;16.98;6.50;;;;;;;20.11;45.10;94428.94;4190557;28;20051;-72
2023/10/21 07:57:39;;;;;;;18.02;6.65;;;;;;;20.14;44.56;94409.91;4205629;28;20044;-75
2023/10/21 07:59:41;;;;;;;20.73;6.82;;;;;;;20.27;44.29;94420.34;4208331;28;20412;-72
2023/10/21 08:01:43;;;;;;;17.13;6.00;;;;;;;19.98;44.89;94411.31;4214286;28;20634;-74
2023/10/21 08:03:45;;;;;;;14.65;6.10;;;;;;;20.16;44.68;94403.31;4212419;28;20079;-73
2023/10/21 08:05:47;;;;;;;17.45;6.10;;;;;;;20.35;44.50;94403.22;4196601;28;20040;-72
2023/10/21 08:07:52;;;;;;;16.73;6.53;;;;;;;20.37;44.61;94403.81;4216101;28;20047;-73
2023/10/21 08:09:55;;;;;;;18.65;6.05;;;;;;;20.59;44.40;94410.28;4193472;28;20068;-71
2023/10/21 08:11:57;;;;;;;19.35;6.25;;;;;;;20.59;44.14;94415.59;4174843;28;20041;-74
2023/10/21 08:14:00;;;;;;;16.25;6.07;;;;;;;20.48;44.33;94397.75;4188747;28;20134;-72
2023/10/21 08:16:03;;;;;;;17.05;5.82;;;;;;;20.71;43.95;94407.63;4214635;28;20536;-75
2023/10/21 08:18:07;;;;;;;15.20;5.50;;;;;;;20.79;43.75;94404.66;4195975;28;20501;-75
2023/10/21 08:20:12;;;;;;;15.35;5.65;;;;;;;20.81;44.16;94407.88;4211691;28;20648;-74
2023/10/21 08:22:14;;;;;;;17.75;6.15;;;;;;;20.95;43.65;94389.84;4195528;28;21218;-75
2023/10/21 08:24:16;;;;;;;25.42;6.05;;;;;;;21.24;43.66;94428.06;4190599;28;20083;-74
2023/10/21 08:26:20;;;;;;;17.33;6.05;;;;;;;21.45;43.14;94401.91;4207341;28;20036;-72
2023/10/21 08:28:21;;;;;;;24.00;7.43;;;;;;;21.53;42.73;94404.22;4212609;28;20052;-73
2023/10/21 08:30:24;;;;;;;17.48;5.72;;;;;;;21.73;42.41;94392.38;4212366;28;20048;-75
2023/10/21 08:32:26;;;;;;;28.67;7.07;;;;;;;21.80;42.45;94411.69;4213412;28;20487;-74
2023/10/21 08:34:28;;;;;;;17.13;5.80;;;;;;;21.67;42.44;94394.91;4209536;28;20428;-71
2023/10/21 08:36:31;;;;;;;14.43;5.50;;;;;;;21.74;42.64;94399.31;4213562;28;20135;-75
2023/10/21 08:38:34;;;;;;;17.52;5.43;;;;;;;21.79;42.30;94396.72;4195486;28;20074;-75
2023/10/21 08:40:38;;;;;;;18.15;4.93;;;;;;;21.91;41.96;94389.50;4195420;28;20076;-72
2023/10/21 08:42:40;;;;;;;13.40;4.75;;;;;;;22.32;41.64;94414.31;4213727;28;20063;-73
2023/10/21 08:44:49;;;;;;;16.17;4.60;;;;;;;22.64;41.12;94390.59;4211986;28;20058;-75
2023/10/21 08:46:53;;;;;;;14.15;5.78;;;;;;;22.65;40.20;94388.72;4194924;28;20365;-73
2023/10/21 08:48:55;;;;;;;15.20;5.25;;;;;;;22.83;38.58;94377.03;4195185;28;20150;-73
2023/10/21 08:51:00;;;;;;;16.60;5.03;;;;;;;23.01;39.35;94392.00;4194483;28;20048;-74
2023/10/21 08:53:05;;;;;;;21.75;5.15;;;;;;;23.25;38.53;94382.78;4212272;28;20075;-74
2023/10/21 08:55:09;;;;;;;12.75;4.10;;;;;;;23.40;37.58;94384.03;4211230;28;20094;-73
2023/10/21 08:57:12;;;;;;;14.82;4.50;;;;;;;23.60;37.73;94400.34;4178789;28;20083;-72
2023/10/21 08:59:15;;;;;;;19.40;5.30;;;;;;;23.77;37.40;94383.44;4210853;28;20508;-73
2023/10/21 09:01:18;;;;;;;18.55;4.30;;;;;;;23.81;35.27;94373.88;4209805;28;20076;-73
2023/10/21 09:03:23;;;;;;;23.33;4.18;;;;;;;23.97;33.79;94389.06;4204947;28;20044;-75
2023/10/21 09:05:26;;;;;;;13.43;5.30;;;;;;;24.14;35.34;94366.78;4179965;28;20049;-73
2023/10/21 09:07:47;;;;;;;10.00;3.42;;;;;;;24.33;33.50;94374.19;4210015;28;20109;-73
2023/10/21 09:09:50;;;;;;;14.90;3.40;;;;;;;24.37;33.89;94376.34;4195115;28;20040;-74
2023/10/21 09:12:11;;;;;;;;;;;;;;;24.61;29.97;94363.47;4212697;28;20055;-73
2023/10/21 09:14:14;;;;;;;21.63;4.03;;;;;;;24.86;28.27;94357.53;4200667;28;20300;-72
2023/10/21 09:16:21;;;;;;;14.10;2.88;;;;;;;24.93;28.32;94353.56;4213249;28;20794;-72
2023/10/21 09:18:23;;;;;;;16.38;3.28;;;;;;;25.20;27.86;94351.91;4212779;28;20114;-71
2023/10/21 09:20:25;;;;;;;20.70;3.10;;;;;;;25.34;27.41;94353.88;4192937;28;20056;-73
2023/10/21 09:22:30;;;;;;;12.60;3.33;;;;;;;25.52;27.34;94357.97;4200855;28;20055;-74
2023/10/21 09:24:32;;;;;;;13.55;2.78;;;;;;;25.66;26.96;94352.97;4194945;28;20048;-74
2023/10/21 09:26:35;;;;;;;13.52;3.20;;;;;;;25.71;26.34;94354.84;4199270;28;20049;-75
2023/10/21 09:28:37;;;;;;;11.75;3.00;;;;;;;25.85;26.17;94344.44;4209726;28;20128;-72
2023/10/21 09:30:39;;;;;;;14.52;2.90;;;;;;;25.99;25.89;94359.00;4207850;28;20121;-73
2023/10/21 09:32:42;;;;;;;18.73;4.03;;;;;;;26.18;26.31;94366.56;4211227;28;20044;-73